| time (UTC) | temp C | wind direction | speed KPH | gust KPH | rain 1hr cm | rain 24hr cm | rain mn cm | humidity % | barometer mb |
| 20260509131022 | -17 | 225 | 4.8 | 9.7 | 0.00 | 0.00 | 0.00 | ||
| 20260509130521 | -17 | 203 | 8.0 | 11.3 | 0.00 | 0.00 | 0.00 | ||
| 20260509125521 | -17 | 203 | 14.5 | 17.7 | 0.00 | 0.00 | 0.00 | ||
| 20260509125100 | -17 | 203 | 17.7 | 24.1 | 0.00 | 0.00 | 0.00 | ||
| 20260509124521 | -17 | 203 | 17.7 | 25.7 | 0.00 | 0.00 | 0.00 | ||
| 20260509124042 | -17 | 203 | 12.9 | 17.7 | 0.00 | 0.00 | 0.00 | ||
| 20260509123521 | -17 | 203 | 12.9 | 16.1 | 0.00 | 0.00 | 0.00 | ||
| 20260509123021 | -17 | 203 | 4.8 | 8.0 | 0.00 | 0.00 | 0.00 | ||
| 20260509122521 | -17 | 180 | 3.2 | 8.0 | 0.00 | 0.00 | 0.00 | ||
| 20260509122021 | -17 | 203 | 6.4 | 9.7 | 0.00 | 0.00 | 0.00 | ||
| 20260509121021 | -17 | 203 | 6.4 | 9.7 | 0.00 | 0.00 | 0.00 | ||
| 20260509120530 | -17 | 180 | 4.8 | 6.4 | 0.00 | 0.00 | 0.00 | ||
| 20260509120044 | -17 | 180 | 4.8 | 6.4 | 0.00 | 0.00 | 0.00 | ||
| 20260509115521 | -17 | 203 | 4.8 | 6.4 | 0.00 | 0.00 | 0.00 | ||
| 20260509115022 | -17 | 203 | 4.8 | 6.4 | 0.00 | 0.00 | 0.00 | ||
| 20260509114522 | -17 | 203 | 6.4 | 8.0 | 0.00 | 0.00 | 0.00 | ||
| 20260509114042 | -17 | 203 | 6.4 | 8.0 | 0.00 | 0.00 | 0.00 | ||
| 20260509113541 | -17 | 203 | 4.8 | 6.4 | 0.00 | 0.00 | 0.00 | ||
| 20260509113022 | -17 | 203 | 3.2 | 6.4 | 0.00 | 0.00 | 0.00 | ||
| 20260509112521 | -17 | 225 | 3.2 | 6.4 | 0.00 | 0.00 | 0.00 | ||
| 20260509112021 | -17 | 248 | 4.8 | 8.0 | 0.00 | 0.00 | 0.00 | ||
| 20260509111521 | -17 | 248 | 6.4 | 8.0 | 0.00 | 0.00 | 0.00 | ||
| 20260509111021 | -17 | 248 | 6.4 | 8.0 | 0.00 | 0.00 | 0.00 | ||
| 20260509110525 | -17 | 248 | 6.4 | 9.7 | 0.00 | 0.00 | 0.00 | ||
| 20260509110021 | -17 | 270 | 9.7 | 11.3 | 0.00 | 0.00 | 0.00 | ||
| 20260509105602 | -17 | 270 | 11.3 | 12.9 | 0.00 | 0.00 | 0.00 | ||
| 20260509105059 | -17 | 270 | 9.7 | 12.9 | 0.00 | 0.00 | 0.00 | ||
| 20260509104521 | -17 | 270 | 9.7 | 11.3 | 0.00 | 0.00 | 0.00 | ||
| 20260509104021 | -17 | 270 | 8.0 | 11.3 | 0.00 | 0.00 | 0.00 | ||
| 20260509103521 | -17 | 270 | 6.4 | 9.7 | 0.00 | 0.00 | 0.00 | ||
| 20260509103021 | -17 | 248 | 6.4 | 9.7 | 0.00 | 0.00 | 0.00 | ||
| 20260509102524 | -17 | 248 | 8.0 | 11.3 | 0.00 | 0.00 | 0.00 | ||
| 20260509102026 | -17 | 248 | 9.7 | 11.3 | 0.00 | 0.00 | 0.00 | ||
| 20260509101521 | -17 | 248 | 8.0 | 11.3 | 0.00 | 0.00 | 0.00 | ||
| 20260509101021 | -17 | 248 | 8.0 | 11.3 | 0.00 | 0.00 | 0.00 | ||
| 20260509100539 | -17 | 248 | 9.7 | 12.9 | 0.00 | 0.00 | 0.00 | ||
| 20260509100032 | -17 | 248 | 8.0 | 11.3 | 0.00 | 0.00 | 0.00 | ||
| 20260509095521 | -17 | 248 | 8.0 | 11.3 | 0.00 | 0.00 | 0.00 | ||
| 20260509095021 | -17 | 248 | 8.0 | 12.9 | 0.00 | 0.00 | 0.00 | ||
| 20260509094521 | -17 | 248 | 9.7 | 12.9 | 0.00 | 0.00 | 0.00 | ||
| 20260509094021 | -17 | 248 | 8.0 | 11.3 | 0.00 | 0.00 | 0.00 | ||
| 20260509093520 | -17 | 248 | 9.7 | 12.9 | 0.00 | 0.00 | 0.00 | ||
| 20260509093021 | -17 | 248 | 9.7 | 12.9 | 0.00 | 0.00 | 0.00 | ||
| 20260509092526 | -17 | 248 | 9.7 | 12.9 | 0.00 | 0.00 | 0.00 | ||
| 20260509092047 | -17 | 248 | 11.3 | 14.5 | 0.00 | 0.00 | 0.00 | ||
| 20260509091524 | -17 | 248 | 12.9 | 16.1 | 0.00 | 0.00 | 0.00 | ||
| 20260509091021 | -17 | 248 | 11.3 | 14.5 | 0.00 | 0.00 | 0.00 | ||
| 20260509090521 | -17 | 248 | 11.3 | 14.5 | 0.00 | 0.00 | 0.00 | ||
| 20260509090021 | -17 | 248 | 11.3 | 12.9 | 0.00 | 0.00 | 0.00 | ||
| 20260509085541 | -17 | 248 | 9.7 | 14.5 | 0.00 | 0.00 | 0.00 | ||
| 20260509085101 | -17 | 248 | 11.3 | 14.5 | 0.00 | 0.00 | 0.00 | ||
| 20260509084525 | -17 | 248 | 11.3 | 14.5 | 0.00 | 0.00 | 0.00 | ||
| 20260509084021 | -17 | 248 | 12.9 | 16.1 | 0.00 | 0.00 | 0.00 | ||
| 20260509083521 | -17 | 248 | 11.3 | 14.5 | 0.00 | 0.00 | 0.00 | ||
| 20260509083021 | -17 | 248 | 11.3 | 14.5 | 0.00 | 0.00 | 0.00 | ||
| 20260509082521 | -17 | 248 | 12.9 | 16.1 | 0.00 | 0.00 | 0.00 | ||
| 20260509082021 | -17 | 248 | 11.3 | 16.1 | 0.00 | 0.00 | 0.00 | ||
| 20260509081523 | -17 | 248 | 14.5 | 20.9 | 0.00 | 0.00 | 0.00 | ||
| 20260509081021 | -17 | 248 | 12.9 | 19.3 | 0.00 | 0.00 | 0.00 | ||
| 20260509080523 | -17 | 225 | 9.7 | 19.3 | 0.00 | 0.00 | 0.00 | ||
| 20260509080025 | -17 | 225 | 9.7 | 16.1 | 0.00 | 0.00 | 0.00 | ||
| 20260509075522 | -17 | 248 | 9.7 | 12.9 | 0.00 | 0.00 | 0.00 | ||
| 20260509075021 | -17 | 270 | 8.0 | 12.9 | 0.00 | 0.00 | 0.00 | ||
| 20260509074621 | -17 | 270 | 11.3 | 16.1 | 0.00 | 0.00 | 0.00 | ||
| 20260509074056 | -17 | 270 | 12.9 | 17.7 | 0.00 | 0.00 | 0.00 | ||
| 20260509073521 | -17 | 293 | 12.9 | 17.7 | 0.00 | 0.00 | 0.00 | ||
| 20260509073021 | -17 | 293 | 14.5 | 17.7 | 0.00 | 0.00 | 0.00 | ||
| 20260509072522 | -17 | 293 | 14.5 | 19.3 | 0.00 | 0.00 | 0.00 | ||
| 20260509072044 | -17 | 293 | 14.5 | 19.3 | 0.00 | 0.00 | 0.00 | ||
| 20260509071541 | -17 | 293 | 14.5 | 19.3 | 0.00 | 0.00 | 0.00 | ||
| 20260509071021 | -17 | 293 | 14.5 | 19.3 | 0.00 | 0.00 | 0.00 | ||
| 20260509070520 | -17 | 293 | 12.9 | 19.3 | 0.00 | 0.00 | 0.00 | ||
| 20260509070020 | -17 | 293 | 11.3 | 20.9 | 0.00 | 0.00 | 0.00 | ||
| 20260509065520 | -17 | 293 | 11.3 | 17.7 | 0.00 | 0.00 | 0.00 | ||
| 20260509065020 | -17 | 293 | 11.3 | 19.3 | 0.00 | 0.00 | 0.00 | ||
| 20260509064541 | -17 | 293 | 12.9 | 17.7 | 0.00 | 0.00 | 0.00 | ||
| 20260509064020 | -17 | 293 | 12.9 | 19.3 | 0.00 | 0.00 | 0.00 | ||
| 20260509063522 | -17 | 270 | 11.3 | 17.7 | 0.00 | 0.00 | 0.00 | ||
| 20260509063020 | -17 | 270 | 11.3 | 14.5 | 0.00 | 0.00 | 0.00 | ||
| 20260509062521 | -17 | 270 | 11.3 | 16.1 | 0.00 | 0.00 | 0.00 | ||
| 20260509062021 | -17 | 270 | 11.3 | 16.1 | 0.00 | 0.00 | 0.00 | ||
| 20260509061520 | -17 | 293 | 11.3 | 16.1 | 0.00 | 0.00 | 0.00 | ||
| 20260509061023 | -17 | 293 | 12.9 | 17.7 | 0.00 | 0.00 | 0.00 | ||
| 20260509060522 | -17 | 293 | 12.9 | 16.1 | 0.00 | 0.00 | 0.00 | ||
| 20260509055520 | -17 | 270 | 12.9 | 19.3 | 0.00 | 0.00 | 0.00 | ||
| 20260509055040 | -17 | 270 | 12.9 | 17.7 | 0.00 | 0.00 | 0.00 | ||
| 20260509054522 | -17 | 270 | 12.9 | 16.1 | 0.00 | 0.00 | 0.00 | ||
| 20260509054024 | -17 | 270 | 12.9 | 16.1 | 0.00 | 0.00 | 0.00 | ||
| 20260509053521 | -17 | 270 | 12.9 | 16.1 | 0.00 | 0.00 | 0.00 | ||
| 20260509053020 | -17 | 270 | 12.9 | 17.7 | 0.00 | 0.00 | 0.00 | ||
| 20260509052521 | -17 | 270 | 14.5 | 19.3 | 0.00 | 0.00 | 0.00 | ||
| 20260509052021 | -17 | 293 | 12.9 | 17.7 | 0.00 | 0.00 | 0.00 | ||
| 20260509051523 | -17 | 293 | 12.9 | 17.7 | 0.00 | 0.00 | 0.00 | ||
| 20260509051020 | -17 | 293 | 12.9 | 17.7 | 0.00 | 0.00 | 0.00 | ||
| 20260509050520 | -17 | 293 | 12.9 | 17.7 | 0.00 | 0.00 | 0.00 | ||
| 20260509050020 | -17 | 293 | 14.5 | 19.3 | 0.00 | 0.00 | 0.00 | ||
| 20260509045522 | -17 | 293 | 14.5 | 19.3 | 0.00 | 0.00 | 0.00 | ||
| 20260509045020 | -17 | 293 | 14.5 | 19.3 | 0.00 | 0.00 | 0.00 | ||
| 20260509044520 | -17 | 293 | 12.9 | 17.7 | 0.00 | 0.00 | 0.00 | ||
| 20260509044020 | -17 | 293 | 12.9 | 16.1 | 0.00 | 0.00 | 0.00 | ||
| 20260509043521 | -17 | 293 | 12.9 | 20.9 | 0.00 | 0.00 | 0.00 | ||
| 20260509043020 | -17 | 293 | 14.5 | 20.9 | 0.00 | 0.00 | 0.00 | ||
| 20260509042522 | -17 | 293 | 14.5 | 19.3 | 0.00 | 0.00 | 0.00 | ||
| 20260509042022 | -17 | 293 | 12.9 | 17.7 | 0.00 | 0.00 | 0.00 | ||
| 20260509041522 | -17 | 293 | 12.9 | 17.7 | 0.00 | 0.00 | 0.00 | ||
| 20260509041022 | -17 | 293 | 11.3 | 17.7 | 0.00 | 0.00 | 0.00 | ||
| 20260509040541 | -17 | 293 | 14.5 | 19.3 | 0.00 | 0.00 | 0.00 | ||
| 20260509040051 | -17 | 293 | 14.5 | 17.7 | 0.00 | 0.00 | 0.00 | ||
| 20260509035521 | -17 | 293 | 12.9 | 17.7 | 0.00 | 0.00 | 0.00 | ||
| 20260509035022 | -17 | 293 | 12.9 | 17.7 | 0.00 | 0.00 | 0.00 | ||
| 20260509034521 | -17 | 293 | 11.3 | 16.1 | 0.00 | 0.00 | 0.00 | ||
| 20260509034021 | -17 | 293 | 11.3 | 16.1 | 0.00 | 0.00 | 0.00 | ||
| 20260509033521 | -17 | 293 | 11.3 | 14.5 | 0.00 | 0.00 | 0.00 | ||
| 20260509033024 | -17 | 293 | 9.7 | 14.5 | 0.00 | 0.00 | 0.00 | ||
| 20260509032601 | -17 | 293 | 8.0 | 14.5 | 0.00 | 0.00 | 0.00 | ||
| 20260509032021 | -17 | 293 | 8.0 | 12.9 | 0.00 | 0.00 | 0.00 | ||
| 20260509031028 | -17 | 293 | 9.7 | 16.1 | 0.00 | 0.00 | 0.00 | ||
| 20260509030520 | -17 | 315 | 11.3 | 17.7 | 0.00 | 0.00 | 0.00 | ||
| 20260509030041 | -17 | 315 | 12.9 | 19.3 | 0.00 | 0.00 | 0.00 | ||
| 20260509025558 | -17 | 293 | 12.9 | 20.9 | 0.00 | 0.00 | 0.00 | ||
| 20260509025102 | -17 | 293 | 12.9 | 19.3 | 0.00 | 0.00 | 0.00 | ||
| 20260509024541 | -17 | 293 | 12.9 | 17.7 | 0.00 | 0.00 | 0.00 | ||
| 20260509024024 | -17 | 293 | 12.9 | 17.7 | 0.00 | 0.00 | 0.00 | ||
| 20260509023541 | -17 | 293 | 12.9 | 19.3 | 0.00 | 0.00 | 0.00 | ||
| 20260509023021 | -17 | 293 | 16.1 | 24.1 | 0.00 | 0.00 | 0.00 | ||
| 20260509022542 | -17 | 293 | 14.5 | 22.5 | 0.00 | 0.00 | 0.00 | ||
| 20260509022100 | -17 | 293 | 14.5 | 20.9 | 0.00 | 0.00 | 0.00 | ||
| 20260509020524 | -17 | 293 | 17.7 | 29.0 | 0.00 | 0.00 | 0.00 | ||
| 20260509020024 | -17 | 315 | 17.7 | 24.1 | 0.00 | 0.00 | 0.00 | ||
| 20260509015522 | -17 | 293 | 17.7 | 27.4 | 0.00 | 0.00 | 0.00 | ||
| 20260509015022 | -17 | 293 | 14.5 | 22.5 | 0.00 | 0.00 | 0.00 | ||
| 20260509014522 | -17 | 293 | 14.5 | 22.5 | 0.00 | 0.00 | 0.00 | ||
| 20260509014053 | -17 | 293 | 16.1 | 25.7 | 0.00 | 0.00 | 0.00 | ||
| 20260509013522 | -17 | 293 | 14.5 | 20.9 | 0.00 | 0.00 | 0.00 | ||
| 20260509013022 | -17 | 293 | 14.5 | 19.3 | 0.00 | 0.00 | 0.00 | ||
| 20260509012520 | -17 | 293 | 14.5 | 20.9 | 0.00 | 0.00 | 0.00 | ||
| 20260509012041 | -17 | 293 | 12.9 | 17.7 | 0.00 | 0.00 | 0.00 | ||
| 20260509011545 | -17 | 293 | 12.9 | 16.1 | 0.00 | 0.00 | 0.00 | ||
| 20260509011106 | -17 | 293 | 11.3 | 14.5 | 0.00 | 0.00 | 0.00 | ||
| 20260509010521 | -17 | 293 | 11.3 | 16.1 | 0.00 | 0.00 | 0.00 | ||
| 20260509010022 | -17 | 293 | 8.0 | 11.3 | 0.00 | 0.00 | 0.00 | ||
| 20260509005521 | -17 | 293 | 8.0 | 12.9 | 0.00 | 0.00 | 0.00 | ||
| 20260509005021 | -17 | 315 | 8.0 | 12.9 | 0.00 | 0.00 | 0.00 | ||
| 20260509004522 | -17 | 293 | 9.7 | 12.9 | 0.00 | 0.00 | 0.00 | ||
| 20260509004025 | -17 | 315 | 6.4 | 12.9 | 0.00 | 0.00 | 0.00 | ||
| 20260509003542 | -17 | 315 | 9.7 | 16.1 | 0.00 | 0.00 | 0.00 | ||
| 20260509003025 | -17 | 315 | 11.3 | 17.7 | 0.00 | 0.00 | 0.00 | ||
| 20260509002521 | -17 | 315 | 9.7 | 19.3 | 0.00 | 0.00 | 0.00 | ||
| 20260509002022 | -17 | 315 | 12.9 | 16.1 | 0.00 | 0.00 | 0.00 | ||
| 20260509001523 | -17 | 315 | 11.3 | 16.1 | 0.00 | 0.00 | 0.00 | ||
| 20260509001021 | -17 | 315 | 9.7 | 14.5 | 0.00 | 0.00 | 0.00 | ||
| 20260509000544 | -17 | 315 | 6.4 | 12.9 | 0.00 | 0.00 | 0.00 | ||
| 20260509000024 | -17 | 293 | 8.0 | 12.9 | 0.00 | 0.00 | 0.00 | ||
| 20260508235524 | -17 | 293 | 8.0 | 12.9 | 0.00 | 0.00 | 0.00 | ||
| 20260508235021 | -17 | 293 | 6.4 | 12.9 | 0.00 | 0.00 | 0.00 | ||
| 20260508234020 | 13 | 293 | 6.4 | 12.9 | 0.00 | 0.00 | 0.00 | 42 | |
| 20260508233521 | 13 | 293 | 4.8 | 11.3 | 0.00 | 0.00 | 0.00 | 42 | |
| 20260508233022 | 13 | 293 | 6.4 | 11.3 | 0.00 | 0.00 | 0.00 | 42 | |
| 20260508232521 | 13 | 315 | 6.4 | 14.5 | 0.00 | 0.00 | 0.00 | 43 | |
| 20260508232042 | 13 | 315 | 9.7 | 17.7 | 0.00 | 0.00 | 0.00 | 42 | |
| 20260508231521 | 13 | 315 | 8.0 | 14.5 | 0.00 | 0.00 | 0.00 | 43 | |
| 20260508231025 | 13 | 315 | 8.0 | 16.1 | 0.00 | 0.00 | 0.00 | 42 | |
| 20260508230521 | 13 | 315 | 9.7 | 16.1 | 0.00 | 0.00 | 0.00 | 42 | |
| 20260508230021 | 13 | 315 | 12.9 | 17.7 | 0.00 | 0.00 | 0.00 | 42 | |
| 20260508225522 | 13 | 315 | 14.5 | 22.5 | 0.00 | 0.00 | 0.00 | 44 | |
| 20260508225022 | 14 | 338 | 12.9 | 20.9 | 0.00 | 0.00 | 0.00 | 42 | |
| 20260508224022 | 14 | 338 | 16.1 | 24.1 | 0.00 | 0.00 | 0.00 | 41 | |
| 20260508223527 | 14 | 315 | 12.9 | 19.3 | 0.00 | 0.00 | 0.00 | 39 | |
| 20260508223021 | 14 | 315 | 14.5 | 20.9 | 0.00 | 0.00 | 0.00 | 37 | |
| 20260508222522 | 14 | 315 | 11.3 | 17.7 | 0.00 | 0.00 | 0.00 | 39 | |
| 20260508222022 | 15 | 315 | 11.3 | 20.9 | 0.00 | 0.00 | 0.00 | 39 | |
| 20260508221521 | 15 | 315 | 12.9 | 20.9 | 0.00 | 0.00 | 0.00 | 36 | |
| 20260508221023 | 15 | 315 | 16.1 | 24.1 | 0.00 | 0.00 | 0.00 | 36 | |
| 20260508220532 | 15 | 315 | 14.5 | 24.1 | 0.00 | 0.00 | 0.00 | 38 | |
| 20260508220024 | 15 | 315 | 12.9 | 17.7 | 0.00 | 0.00 | 0.00 | 38 | |
| 20260508215521 | 15 | 315 | 11.3 | 17.7 | 0.00 | 0.00 | 0.00 | 39 | |
| 20260508215102 | 15 | 315 | 11.3 | 16.1 | 0.00 | 0.00 | 0.00 | 37 | |
| 20260508214522 | 15 | 315 | 16.1 | 24.1 | 0.00 | 0.00 | 0.00 | 38 | |
| 20260508214022 | 15 | 338 | 19.3 | 25.7 | 0.00 | 0.00 | 0.00 | 38 | |
| 20260508213521 | 15 | 338 | 17.7 | 25.7 | 0.00 | 0.00 | 0.00 | 40 | |
| 20260508213021 | 15 | 315 | 19.3 | 25.7 | 0.00 | 0.00 | 0.00 | 39 | |
| 20260508212521 | 15 | 315 | 19.3 | 27.4 | 0.00 | 0.00 | 0.00 | 36 | |
| 20260508212023 | 15 | 315 | 22.5 | 33.8 | 0.00 | 0.00 | 0.00 | 37 | |
| 20260508211521 | 15 | 315 | 17.7 | 27.4 | 0.00 | 0.00 | 0.00 | 37 | |
| 20260508210521 | 15 | 315 | 17.7 | 27.4 | 0.00 | 0.00 | 0.00 | 36 | |
| 20260508210021 | 15 | 315 | 19.3 | 33.8 | 0.00 | 0.00 | 0.00 | 34 | |
| 20260508205543 | 16 | 315 | 16.1 | 24.1 | 0.00 | 0.00 | 0.00 | 34 | |
| 20260508205022 | 16 | 293 | 17.7 | 29.0 | 0.00 | 0.00 | 0.00 | 33 | |
| 20260508204521 | 16 | 293 | 22.5 | 33.8 | 0.00 | 0.00 | 0.00 | 32 | |
| 20260508203521 | 16 | 293 | 17.7 | 29.0 | 0.00 | 0.00 | 0.00 | 34 | |
| 20260508203021 | 16 | 293 | 19.3 | 30.6 | 0.00 | 0.00 | 0.00 | 33 | |
| 20260508202521 | 15 | 293 | 14.5 | 25.7 | 0.00 | 0.00 | 0.00 | 36 | |
| 20260508202053 | 15 | 270 | 19.3 | 35.4 | 0.00 | 0.00 | 0.00 | 36 | |
| 20260508201521 | 16 | 315 | 22.5 | 35.4 | 0.00 | 0.00 | 0.00 | 35 | |
| 20260508201024 | 16 | 315 | 19.3 | 33.8 | 0.00 | 0.00 | 0.00 | 38 | |
| 20260508200531 | 15 | 270 | 22.5 | 35.4 | 0.00 | 0.00 | 0.00 | 35 | |
| 20260508200024 | 15 | 293 | 22.5 | 37.0 | 0.00 | 0.00 | 0.00 | 35 | |
| 20260508195522 | 15 | 293 | 22.5 | 35.4 | 0.00 | 0.00 | 0.00 | 34 | |
| 20260508195021 | 15 | 293 | 20.9 | 32.2 | 0.00 | 0.00 | 0.00 | 38 | |
| 20260508194603 | 15 | 293 | 19.3 | 30.6 | 0.00 | 0.00 | 0.00 | 36 | |
| 20260508194021 | 15 | 293 | 24.1 | 38.6 | 0.00 | 0.00 | 0.00 | 34 | |
| 20260508192021 | 15 | 270 | 20.9 | 38.6 | 0.00 | 0.00 | 0.00 | 38 | |
| 20260508191542 | 16 | 270 | 24.1 | 43.5 | 0.00 | 0.00 | 0.00 | 36 | |
| 20260508191022 | 16 | 270 | 22.5 | 33.8 | 0.00 | 0.00 | 0.00 | 35 | |
| 20260508185041 | 15 | 293 | 24.1 | 41.8 | 0.00 | 0.00 | 0.00 | 38 | |
| 20260508184525 | 15 | 293 | 24.1 | 45.1 | 0.00 | 0.00 | 0.00 | 38 | |
| 20260508182521 | 15 | 293 | 22.5 | 33.8 | 0.00 | 0.00 | 0.00 | 39 | |
| 20260508182021 | 13 | 293 | 16.1 | 32.2 | 0.00 | 0.00 | 0.00 | 44 | |
| 20260508181521 | 12 | 248 | 9.7 | 19.3 | 0.00 | 0.00 | 0.00 | 59 | |
| 20260508181021 | 12 | 225 | 8.0 | 20.9 | 0.00 | 0.00 | 0.00 | 60 | |
| 20260508180550 | 12 | 248 | 11.3 | 20.9 | 0.00 | 0.00 | 0.00 | 59 | |
| 20260508180031 | 12 | 225 | 14.5 | 20.9 | 0.00 | 0.00 | 0.00 | 66 | |
| 20260508175541 | 12 | 248 | 8.0 | 16.1 | 0.00 | 0.00 | 0.00 | 67 | |
| 20260508175021 | 12 | 270 | 8.0 | 14.5 | 0.00 | 0.00 | 0.00 | 66 | |
| 20260508174520 | 12 | 225 | 8.0 | 17.7 | 0.00 | 0.00 | 0.00 | 69 | |
| 20260508174025 | 12 | 203 | 12.9 | 22.5 | 0.00 | 0.00 | 0.00 | 65 | |
| 20260508173522 | 12 | 248 | 9.7 | 19.3 | 0.00 | 0.00 | 0.00 | 64 | |
| 20260508173021 | 12 | 203 | 11.3 | 19.3 | 0.00 | 0.00 | 0.00 | 60 | |
| 20260508171021 | 12 | 203 | 16.1 | 22.5 | 0.00 | 0.00 | 0.00 | 64 | |
| 20260508170542 | 12 | 225 | 12.9 | 19.3 | 0.00 | 0.00 | 0.00 | 64 | |
| 20260508170129 | 12 | 203 | 14.5 | 22.5 | 0.00 | 0.00 | 0.00 | 61 | |
| 20260508165543 | 12 | 203 | 9.7 | 16.1 | 0.00 | 0.00 | 0.00 | 58 | |
| 20260508165024 | 12 | 270 | 11.3 | 20.9 | 0.00 | 0.00 | 0.00 | 56 | |
| 20260508164521 | 12 | 225 | 9.7 | 27.4 | 0.00 | 0.00 | 0.00 | 55 | |
| 20260508164021 | 12 | 270 | 9.7 | 30.6 | 0.00 | 0.00 | 0.00 | 49 | |
| 20260508163521 | 12 | 203 | 12.9 | 22.5 | 0.00 | 0.00 | 0.00 | 62 | |
| 20260508163020 | 12 | 203 | 14.5 | 22.5 | 0.00 | 0.00 | 0.00 | 61 | |
| 20260508162520 | 12 | 203 | 17.7 | 24.1 | 0.00 | 0.00 | 0.00 | 55 | |
| 20260508162021 | 12 | 180 | 12.9 | 19.3 | 0.00 | 0.00 | 0.00 | 63 | |
| 20260508161520 | 12 | 158 | 8.0 | 14.5 | 0.00 | 0.00 | 0.00 | 62 | |
| 20260508161020 | 12 | 180 | 6.4 | 12.9 | 0.00 | 0.00 | 0.00 | 59 | |
| 20260508160608 | 12 | 180 | 12.9 | 17.7 | 0.00 | 0.00 | 0.00 | 54 | |
| 20260508160049 | 12 | 180 | 9.7 | 14.5 | 0.00 | 0.00 | 0.00 | 57 | |
| 20260508155521 | 12 | 180 | 12.9 | 17.7 | 0.00 | 0.00 | 0.00 | 55 | |
| 20260508155023 | 12 | 180 | 11.3 | 17.7 | 0.00 | 0.00 | 0.00 | 50 | |
| 20260508154521 | 12 | 158 | 9.7 | 17.7 | 0.00 | 0.00 | 0.00 | 55 | |
| 20260508154021 | 12 | 113 | 8.0 | 14.5 | 0.00 | 0.00 | 0.00 | 49 | |
| 20260508153520 | 12 | 338 | 4.8 | 11.3 | 0.00 | 0.00 | 0.00 | 49 | |
| 20260508153021 | 12 | 158 | 8.0 | 16.1 | 0.00 | 0.00 | 0.00 | 49 | |
| 20260508152521 | 12 | 180 | 8.0 | 12.9 | 0.00 | 0.00 | 0.00 | 49 | |
| 20260508152021 | 12 | 158 | 8.0 | 16.1 | 0.00 | 0.00 | 0.00 | 54 | |
| 20260508151520 | 12 | 113 | 4.8 | 8.0 | 0.00 | 0.00 | 0.00 | 60 | |
| 20260508151022 | 12 | 90 | 8.0 | 14.5 | 0.00 | 0.00 | 0.00 | 53 | |
| 20260508150541 | 12 | 68 | 11.3 | 16.1 | 0.00 | 0.00 | 0.00 | 57 | |
| 20260508150042 | 12 | 68 | 9.7 | 14.5 | 0.00 | 0.00 | 0.00 | 57 | |
| 20260508144541 | 12 | 113 | 8.0 | 12.9 | 0.00 | 0.00 | 0.00 | 59 | |
| 20260508144041 | 13 | 113 | 9.7 | 12.9 | 0.00 | 0.00 | 0.00 | 61 | |
| 20260508143520 | 13 | 113 | 8.0 | 12.9 | 0.00 | 0.00 | 0.00 | 55 | |
| 20260508143021 | 13 | 90 | 9.7 | 16.1 | 0.00 | 0.00 | 0.00 | 50 | |
| 20260508142544 | 15 | 293 | 4.8 | 16.1 | 0.00 | 0.00 | 0.00 | 41 | |
| 20260508142020 | 15 | 315 | 4.8 | 11.3 | 0.00 | 0.00 | 0.00 | 43 | |
| 20260508141521 | 15 | 270 | 8.0 | 19.3 | 0.00 | 0.00 | 0.00 | 45 | |
| 20260508141020 | 15 | 270 | 9.7 | 22.5 | 0.00 | 0.00 | 0.00 | 39 | |
| 20260508140543 | 15 | 293 | 12.9 | 20.9 | 0.00 | 0.00 | 0.00 | 39 | |
| 20260508140058 | 15 | 315 | 8.0 | 16.1 | 0.00 | 0.00 | 0.00 | 41 | |
| 20260508135543 | 14 | 293 | 12.9 | 20.9 | 0.00 | 0.00 | 0.00 | 40 | |
| 20260508135020 | 14 | 293 | 12.9 | 20.9 | 0.00 | 0.00 | 0.00 | 40 | |
| 20260508134521 | 14 | 315 | 9.7 | 19.3 | 0.00 | 0.00 | 0.00 | 43 | |
| 20260508134022 | 14 | 338 | 9.7 | 19.3 | 0.00 | 0.00 | 0.00 | 46 | |
| 20260508133526 | 14 | 315 | 12.9 | 19.3 | 0.00 | 0.00 | 0.00 | 43 | |
| 20260508133022 | 13 | 338 | 14.5 | 19.3 | 0.00 | 0.00 | 0.00 | 47 | |
| 20260508132522 | 13 | 315 | 9.7 | 17.7 | 0.00 | 0.00 | 0.00 | 43 | |
| 20260508132022 | 13 | 315 | 11.3 | 17.7 | 0.00 | 0.00 | 0.00 | 46 | |
| 20260508131522 | 13 | 293 | 9.7 | 16.1 | 0.00 | 0.00 | 0.00 | 45 |